createdAt,value
2022-08-31T00:01:55.000Z,7.4
2022-08-31T00:05:28.000Z,7.1
2022-08-31T00:09:01.000Z,7.8
2022-08-31T00:12:36.000Z,8
2022-08-31T00:16:12.000Z,7.9
2022-08-31T00:19:45.000Z,7.9
2022-08-31T00:23:18.000Z,7.6
2022-08-31T00:26:09.000Z,7.8
2022-08-31T00:29:42.000Z,8
2022-08-31T00:33:14.000Z,8.1
2022-08-31T00:36:47.000Z,8
2022-08-31T00:40:20.000Z,8
2022-08-31T00:43:53.000Z,7
2022-08-31T00:47:26.000Z,7.7
2022-08-31T00:50:58.000Z,7.8
2022-08-31T00:54:36.000Z,7.2
2022-08-31T00:58:09.000Z,8
2022-08-31T01:01:41.000Z,7.8
2022-08-31T01:04:32.000Z,7.6
2022-08-31T01:08:05.000Z,6.9
2022-08-31T01:11:43.000Z,7.4
2022-08-31T01:15:16.000Z,8
2022-08-31T01:18:49.000Z,7.9
2022-08-31T01:22:22.000Z,7.5
2022-08-31T01:25:55.000Z,8
2022-08-31T01:29:27.000Z,7.4
2022-08-31T01:33:00.000Z,7.7
2022-08-31T01:36:32.000Z,7.5
2022-08-31T01:40:05.000Z,7.4
2022-08-31T01:42:56.000Z,7
2022-08-31T01:46:29.000Z,7.3
2022-08-31T01:50:01.000Z,7.3
2022-08-31T01:53:34.000Z,7.7
2022-08-31T01:57:13.000Z,7.7
2022-08-31T02:01:05.000Z,7
2022-08-31T02:04:59.000Z,7.3
2022-08-31T02:08:31.000Z,7.8
2022-08-31T02:12:05.000Z,6.3
2022-08-31T02:15:38.000Z,6.7
2022-08-31T02:19:10.000Z,7
2022-08-31T02:22:01.000Z,7.2
2022-08-31T02:25:34.000Z,6.2
2022-08-31T02:29:06.000Z,7.8
2022-08-31T02:32:39.000Z,8.5
2022-08-31T02:36:12.000Z,7.9
2022-08-31T02:39:45.000Z,7.9
2022-08-31T02:43:18.000Z,7.7
2022-08-31T02:46:51.000Z,7.4
2022-08-31T02:50:24.000Z,7.9
2022-08-31T02:53:56.000Z,7.7
2022-08-31T02:57:29.000Z,7.7
2022-08-31T03:00:20.000Z,6.9
2022-08-31T03:03:53.000Z,6.3
2022-08-31T03:07:26.000Z,7.6
2022-08-31T03:10:58.000Z,6.7
2022-08-31T03:14:31.000Z,7.1
2022-08-31T03:18:04.000Z,7.1
2022-08-31T03:21:37.000Z,7
2022-08-31T03:25:12.000Z,7.1
2022-08-31T03:28:45.000Z,5.9
2022-08-31T03:32:17.000Z,6.4
2022-08-31T03:35:50.000Z,6.4
2022-08-31T03:38:41.000Z,6.2
2022-08-31T03:42:14.000Z,6.5
2022-08-31T03:45:47.000Z,6.7
2022-08-31T03:49:22.000Z,5.8
2022-08-31T03:52:54.000Z,6.7
2022-08-31T03:56:28.000Z,6.2
2022-08-31T04:00:01.000Z,6
2022-08-31T04:03:34.000Z,5.4
2022-08-31T04:07:07.000Z,6
2022-08-31T04:10:39.000Z,5.2
2022-08-31T04:14:12.000Z,5.2
2022-08-31T04:17:03.000Z,5.7
2022-08-31T04:20:35.000Z,5.2
2022-08-31T04:24:08.000Z,5
2022-08-31T04:27:41.000Z,4.9
2022-08-31T04:31:13.000Z,5.5
2022-08-31T04:34:46.000Z,5.2
2022-08-31T04:38:21.000Z,4.9
2022-08-31T04:41:57.000Z,5.3
2022-08-31T04:45:30.000Z,5
2022-08-31T04:49:03.000Z,5.6
2022-08-31T04:52:41.000Z,5
2022-08-31T04:55:47.000Z,4.6
2022-08-31T04:59:20.000Z,5.1
2022-08-31T05:02:53.000Z,5.7
2022-08-31T05:06:25.000Z,5.5
2022-08-31T05:09:58.000Z,5.2
2022-08-31T05:13:30.000Z,4.8
2022-08-31T05:17:03.000Z,5
2022-08-31T05:20:40.000Z,4.6
2022-08-31T05:24:13.000Z,4.7
2022-08-31T05:27:45.000Z,4.4
2022-08-31T05:31:19.000Z,4.8
2022-08-31T05:34:11.000Z,4.5
2022-08-31T05:37:43.000Z,4.3
2022-08-31T05:41:16.000Z,5
2022-08-31T05:44:49.000Z,4.5
2022-08-31T05:48:21.000Z,4.6
2022-08-31T05:51:55.000Z,4.8
2022-08-31T05:55:28.000Z,4.5
2022-08-31T05:59:02.000Z,4.7
2022-08-31T06:02:35.000Z,5.4
2022-08-31T06:06:07.000Z,5
2022-08-31T06:09:40.000Z,4.9
2022-08-31T06:12:32.000Z,5.3
2022-08-31T06:16:04.000Z,4.9
2022-08-31T06:19:37.000Z,5
2022-08-31T06:23:10.000Z,5.6
2022-08-31T06:26:43.000Z,4.9
2022-08-31T06:30:22.000Z,4.6
2022-08-31T06:33:54.000Z,5
2022-08-31T06:37:27.000Z,5.9
2022-08-31T06:40:59.000Z,5.1
2022-08-31T06:44:32.000Z,5.5
2022-08-31T06:48:05.000Z,5.6
2022-08-31T06:50:56.000Z,7
2022-08-31T06:54:29.000Z,5.2
2022-08-31T06:58:01.000Z,5
2022-08-31T07:01:34.000Z,5.3
2022-08-31T07:05:07.000Z,6.2
2022-08-31T07:08:49.000Z,5.6
2022-08-31T07:12:22.000Z,5.4
2022-08-31T07:15:55.000Z,5
2022-08-31T07:19:27.000Z,5.9
2022-08-31T07:23:00.000Z,6
2022-08-31T07:26:33.000Z,6.5
2022-08-31T07:29:24.000Z,5.5
2022-08-31T07:32:57.000Z,5.8
2022-08-31T07:36:30.000Z,6.6
2022-08-31T07:40:02.000Z,5.5
2022-08-31T07:43:35.000Z,5.4
2022-08-31T07:47:10.000Z,6.3
2022-08-31T07:50:43.000Z,6
2022-08-31T07:54:16.000Z,6.3
2022-08-31T07:57:48.000Z,6.4
2022-08-31T08:01:21.000Z,6.7
2022-08-31T08:04:54.000Z,6.1
2022-08-31T08:07:45.000Z,6.4
2022-08-31T08:11:24.000Z,7
2022-08-31T08:14:58.000Z,7.4
2022-08-31T08:18:31.000Z,8.1
2022-08-31T08:22:03.000Z,7.1
2022-08-31T08:25:36.000Z,7.9
2022-08-31T08:29:11.000Z,8.6
2022-08-31T08:32:44.000Z,8
2022-08-31T08:36:17.000Z,8.7
2022-08-31T08:39:59.000Z,8.7
2022-08-31T08:43:32.000Z,8.7
2022-08-31T08:46:22.000Z,8.6
2022-08-31T08:50:00.000Z,9.1
2022-08-31T08:53:33.000Z,9.6
2022-08-31T08:57:05.000Z,8.6
2022-08-31T09:00:38.000Z,9.4
2022-08-31T09:04:11.000Z,9.2
2022-08-31T09:07:43.000Z,9.7
2022-08-31T09:11:16.000Z,10
2022-08-31T09:14:51.000Z,8.9
2022-08-31T09:18:23.000Z,8.8
2022-08-31T09:21:56.000Z,9.7
2022-08-31T09:24:47.000Z,9.9
2022-08-31T09:28:20.000Z,10.6
2022-08-31T09:31:52.000Z,10.3
2022-08-31T09:35:31.000Z,9.2
2022-08-31T09:39:05.000Z,10.7
2022-08-31T09:42:38.000Z,10.9
2022-08-31T09:46:13.000Z,9.4
2022-08-31T09:49:46.000Z,9.4
2022-08-31T09:53:19.000Z,10.5
2022-08-31T09:56:52.000Z,10.5
2022-08-31T10:00:24.000Z,10
2022-08-31T10:03:16.000Z,10.4
2022-08-31T10:06:48.000Z,9.7
2022-08-31T10:10:21.000Z,11.2
2022-08-31T10:13:57.000Z,9.9
2022-08-31T10:17:29.000Z,10.7
2022-08-31T10:21:02.000Z,11.2
2022-08-31T10:24:35.000Z,9.9
2022-08-31T10:28:07.000Z,10.1
2022-08-31T10:31:40.000Z,10.3
2022-08-31T10:35:14.000Z,11
2022-08-31T10:38:46.000Z,9.5
2022-08-31T10:41:37.000Z,10.8
2022-08-31T10:45:10.000Z,10.7
2022-08-31T10:48:44.000Z,10.5
2022-08-31T10:52:17.000Z,10.2
2022-08-31T10:55:49.000Z,10.3
2022-08-31T10:59:24.000Z,11.2
2022-08-31T11:02:57.000Z,10.9
2022-08-31T11:06:30.000Z,11.7
2022-08-31T11:10:03.000Z,12.3
2022-08-31T11:13:42.000Z,12.5
2022-08-31T11:17:17.000Z,11.6
2022-08-31T11:20:09.000Z,12
2022-08-31T11:23:42.000Z,11.8
2022-08-31T11:27:14.000Z,11.7
2022-08-31T11:30:47.000Z,11.5
2022-08-31T11:34:20.000Z,11.4
2022-08-31T11:37:52.000Z,11.7
2022-08-31T11:41:25.000Z,10.8
2022-08-31T11:44:58.000Z,11.1
2022-08-31T11:48:32.000Z,11.7
2022-08-31T11:52:05.000Z,10.5
2022-08-31T11:55:37.000Z,11.3
2022-08-31T11:58:28.000Z,11.3
2022-08-31T12:02:01.000Z,11.6
2022-08-31T12:05:34.000Z,12
2022-08-31T12:09:07.000Z,12.2
2022-08-31T12:12:39.000Z,12.6
2022-08-31T12:16:12.000Z,11.9
2022-08-31T12:19:45.000Z,12.1
2022-08-31T12:23:18.000Z,13.1
2022-08-31T12:26:56.000Z,12.6
2022-08-31T12:34:01.000Z,12.9
2022-08-31T12:36:53.000Z,11.8
2022-08-31T12:40:25.000Z,12.3
2022-08-31T12:43:58.000Z,11.8
2022-08-31T12:47:39.000Z,12.3
2022-08-31T12:51:11.000Z,12.3
2022-08-31T12:54:44.000Z,11.9
2022-08-31T12:58:17.000Z,11.5
2022-08-31T13:02:00.000Z,10.9
2022-08-31T13:05:34.000Z,10.9
2022-08-31T13:09:08.000Z,11.3
2022-08-31T13:12:41.000Z,10.4
2022-08-31T13:15:33.000Z,10.4
2022-08-31T13:19:06.000Z,10.4
2022-08-31T13:22:38.000Z,10.3
2022-08-31T13:26:11.000Z,9.6
2022-08-31T13:29:44.000Z,9.4
2022-08-31T13:33:17.000Z,8.9
2022-08-31T13:36:49.000Z,9.9
2022-08-31T13:40:22.000Z,8.8
2022-08-31T13:43:55.000Z,8.2
2022-08-31T13:47:28.000Z,8.5
2022-08-31T13:51:22.000Z,8.4
2022-08-31T13:54:13.000Z,8.3
2022-08-31T13:57:46.000Z,8.6
2022-08-31T14:01:19.000Z,7.9
2022-08-31T14:04:52.000Z,8.3
2022-08-31T14:08:24.000Z,8.2
2022-08-31T14:11:57.000Z,7.4
2022-08-31T14:15:30.000Z,7.5
2022-08-31T14:19:02.000Z,7.1
2022-08-31T14:22:35.000Z,7.1
2022-08-31T14:26:08.000Z,7.2
2022-08-31T14:29:42.000Z,7
2022-08-31T14:32:34.000Z,7
2022-08-31T14:36:06.000Z,7.3
2022-08-31T14:39:40.000Z,7
2022-08-31T14:43:13.000Z,7.3
2022-08-31T14:46:45.000Z,7.3
2022-08-31T14:50:18.000Z,7.6
2022-08-31T14:53:51.000Z,7
2022-08-31T14:57:24.000Z,7.3
2022-08-31T15:00:58.000Z,6.9
2022-08-31T15:04:31.000Z,6.7
2022-08-31T15:08:12.000Z,6.9
2022-08-31T15:11:12.000Z,6.6
2022-08-31T15:14:45.000Z,6.4
2022-08-31T15:18:17.000Z,5.9
2022-08-31T15:21:50.000Z,6.5
2022-08-31T15:25:28.000Z,6
2022-08-31T15:29:01.000Z,5.2
2022-08-31T15:32:36.000Z,5.3
2022-08-31T15:36:09.000Z,5.6
2022-08-31T15:39:43.000Z,5.1
2022-08-31T15:43:16.000Z,4.9
2022-08-31T15:46:48.000Z,4.5
2022-08-31T15:49:42.000Z,4.7
2022-08-31T15:53:15.000Z,4.8
2022-08-31T15:56:48.000Z,4.5
2022-08-31T16:00:24.000Z,4.2
2022-08-31T16:03:56.000Z,4
2022-08-31T16:07:29.000Z,3.9
2022-08-31T16:11:02.000Z,4
2022-08-31T16:14:35.000Z,3.4
2022-08-31T16:18:08.000Z,3.3
2022-08-31T16:21:41.000Z,3.2
2022-08-31T16:25:14.000Z,3.3
2022-08-31T16:28:05.000Z,3.1
2022-08-31T16:31:38.000Z,2.9
2022-08-31T16:35:11.000Z,3.2
2022-08-31T16:38:44.000Z,2.9
2022-08-31T16:42:17.000Z,3
2022-08-31T16:46:17.000Z,2.5
2022-08-31T16:50:06.000Z,2.7
2022-08-31T16:53:39.000Z,2.6
2022-08-31T16:57:12.000Z,2.3
2022-08-31T17:00:51.000Z,2.3
2022-08-31T17:04:24.000Z,2.5
2022-08-31T17:07:35.000Z,2.3
2022-08-31T17:11:08.000Z,2.3
2022-08-31T17:14:41.000Z,2.1
2022-08-31T17:18:14.000Z,2.2
2022-08-31T17:21:47.000Z,2.2
2022-08-31T17:25:19.000Z,2.2
2022-08-31T17:28:52.000Z,2.2
2022-08-31T17:32:26.000Z,2
2022-08-31T17:35:58.000Z,2.2
2022-08-31T17:39:31.000Z,2.2
2022-08-31T17:43:04.000Z,2
2022-08-31T17:45:55.000Z,2.1
2022-08-31T17:49:28.000Z,2.1
2022-08-31T17:53:03.000Z,2.2
2022-08-31T17:56:36.000Z,1.9
2022-08-31T18:00:13.000Z,2
2022-08-31T18:03:46.000Z,2
2022-08-31T18:07:19.000Z,2
2022-08-31T18:10:52.000Z,2.1
2022-08-31T18:14:24.000Z,2.4
2022-08-31T18:17:57.000Z,2.2
2022-08-31T18:21:30.000Z,2.7
2022-08-31T18:24:22.000Z,2.4
2022-08-31T18:27:55.000Z,2.6
2022-08-31T18:31:28.000Z,2.8
2022-08-31T18:35:01.000Z,2.4
2022-08-31T18:38:34.000Z,2.7
2022-08-31T18:42:07.000Z,2.3
2022-08-31T18:45:41.000Z,2.5
2022-08-31T18:49:14.000Z,2.5
2022-08-31T18:52:47.000Z,2.6
2022-08-31T18:56:20.000Z,2.6
2022-08-31T18:59:55.000Z,2.7
2022-08-31T19:02:46.000Z,2.5
2022-08-31T19:06:20.000Z,2.7
2022-08-31T19:09:54.000Z,2.9
2022-08-31T19:13:27.000Z,3
2022-08-31T19:17:00.000Z,2.9
2022-08-31T19:20:33.000Z,3.1
2022-08-31T19:24:07.000Z,3.4
2022-08-31T19:31:50.000Z,2.8
2022-08-31T19:35:23.000Z,3
2022-08-31T19:38:56.000Z,2.8
2022-08-31T19:41:47.000Z,3.1
2022-08-31T19:45:53.000Z,3
2022-08-31T19:49:35.000Z,3.2
2022-08-31T19:53:08.000Z,3
2022-08-31T19:56:46.000Z,2.9
2022-08-31T20:00:19.000Z,3
2022-08-31T20:03:52.000Z,3
2022-08-31T20:07:24.000Z,3.3
2022-08-31T20:11:00.000Z,3.1
2022-08-31T20:14:33.000Z,3
2022-08-31T20:18:06.000Z,3.3
2022-08-31T20:20:57.000Z,3.3
2022-08-31T20:24:30.000Z,3.2
2022-08-31T20:28:03.000Z,3.1
2022-08-31T20:31:36.000Z,3.1
2022-08-31T20:35:10.000Z,3.1
2022-08-31T20:38:43.000Z,3.2
2022-08-31T20:42:16.000Z,3.1
2022-08-31T20:45:48.000Z,3.3
2022-08-31T20:49:21.000Z,3
2022-08-31T20:52:55.000Z,3.1
2022-08-31T20:56:27.000Z,3.2
2022-08-31T20:59:18.000Z,3.4
2022-08-31T21:02:51.000Z,3.2
2022-08-31T21:06:24.000Z,3.1
2022-08-31T21:09:56.000Z,3.1
2022-08-31T21:13:29.000Z,3.2
2022-08-31T21:17:02.000Z,3.2
2022-08-31T21:20:34.000Z,3.2
2022-08-31T21:24:07.000Z,3.6
2022-08-31T21:27:39.000Z,3
2022-08-31T21:31:12.000Z,3.4
2022-08-31T21:34:57.000Z,3.1
2022-08-31T21:37:48.000Z,3.5
2022-08-31T21:41:20.000Z,3.4
2022-08-31T21:44:53.000Z,3.6
2022-08-31T21:48:26.000Z,3.4
2022-08-31T21:51:58.000Z,3.4
2022-08-31T21:55:31.000Z,3.2
2022-08-31T21:59:03.000Z,3.2
2022-08-31T22:02:36.000Z,3.7
2022-08-31T22:06:10.000Z,3.4
2022-08-31T22:09:43.000Z,3.2
2022-08-31T22:13:16.000Z,3.6
2022-08-31T22:16:07.000Z,3.7
2022-08-31T22:20:04.000Z,3.7
2022-08-31T22:23:37.000Z,3.3
2022-08-31T22:27:11.000Z,3.6
2022-08-31T22:30:43.000Z,3.4
2022-08-31T22:34:16.000Z,3.6
2022-08-31T22:37:49.000Z,3.5
2022-08-31T22:41:22.000Z,3.5
2022-08-31T22:44:54.000Z,3.5
2022-08-31T22:48:27.000Z,3.4
2022-08-31T22:52:00.000Z,3.7
2022-08-31T22:54:51.000Z,3.7
2022-08-31T22:58:23.000Z,3.4
2022-08-31T23:01:56.000Z,3.5
2022-08-31T23:05:29.000Z,3.5
2022-08-31T23:09:01.000Z,3.6
2022-08-31T23:12:34.000Z,3.7
2022-08-31T23:16:06.000Z,3.8
2022-08-31T23:19:39.000Z,3.3
2022-08-31T23:23:12.000Z,3.6
2022-08-31T23:26:44.000Z,3.4
2022-08-31T23:30:17.000Z,3.1
2022-08-31T23:33:08.000Z,3.8
2022-08-31T23:36:41.000Z,3.8
2022-08-31T23:40:14.000Z,3.9
2022-08-31T23:43:46.000Z,3.9
2022-08-31T23:47:20.000Z,3.8
2022-08-31T23:50:53.000Z,4
2022-08-31T23:54:26.000Z,3.8
2022-08-31T23:57:58.000Z,3.8
